createdAt,value
2023-05-14T16:26:28.229Z,20.71
2023-05-14T16:26:38.902Z,20.72
2023-05-14T16:26:45.778Z,20.72
2023-05-14T16:26:55.931Z,20.72
2023-05-14T16:27:06.058Z,20.75
2023-05-14T16:27:16.296Z,20.76
2023-05-14T16:27:36.459Z,20.73
2023-05-14T16:27:46.608Z,20.72
2023-05-14T16:27:57.406Z,20.72
2023-05-14T16:28:06.644Z,20.72
2023-05-14T16:28:16.728Z,20.71
2023-05-14T16:28:26.939Z,20.69
2023-05-14T16:28:38.185Z,20.69
2023-05-14T16:28:47.058Z,20.68
2023-05-14T16:29:08.376Z,20.68
2023-05-14T16:29:17.675Z,20.68
2023-05-14T16:29:27.738Z,20.68
2023-05-14T16:29:37.631Z,20.66
2023-05-14T16:29:47.942Z,20.64
2023-05-14T16:29:57.994Z,20.63
2023-05-14T16:30:18.268Z,20.63
2023-05-14T16:30:28.258Z,20.63
2023-05-14T16:30:38.448Z,20.61
2023-05-14T16:30:48.551Z,20.60
2023-05-14T16:30:58.603Z,20.57
2023-05-14T16:31:08.873Z,20.58
2023-05-14T16:31:18.868Z,20.56
2023-05-14T16:31:28.951Z,20.54
2023-05-14T16:31:39.186Z,20.53
2023-05-14T16:31:49.450Z,20.50
2023-05-14T16:32:00.275Z,20.50
2023-05-14T16:32:10.100Z,20.46
2023-05-14T16:32:19.897Z,20.44
2023-05-14T16:32:30.655Z,20.40
2023-05-14T16:32:40.098Z,20.38
2023-05-14T16:32:50.157Z,20.34
2023-05-14T16:33:00.435Z,20.30
2023-05-14T16:33:10.419Z,20.23
2023-05-14T16:33:20.485Z,20.22
2023-05-14T16:33:40.852Z,20.16
2023-05-14T16:33:50.741Z,20.13
2023-05-14T16:34:01.082Z,20.12
2023-05-14T16:34:10.994Z,20.10
2023-05-14T16:34:21.174Z,20.07
2023-05-14T16:34:31.366Z,20.05
2023-05-14T16:34:41.445Z,20.01
2023-05-14T16:34:51.665Z,20.02
2023-05-14T16:35:02.231Z,20.01
2023-05-14T16:35:12.749Z,19.98
2023-05-14T16:35:21.941Z,19.97
2023-05-14T16:35:32.126Z,19.94
2023-05-14T16:35:42.189Z,19.90
2023-05-14T16:35:52.304Z,19.87
2023-05-14T16:36:02.380Z,19.86
2023-05-14T16:36:13.199Z,19.86
2023-05-14T16:36:22.677Z,19.86
2023-05-14T16:36:32.734Z,19.83
2023-05-14T16:36:43.196Z,19.83
2023-05-14T16:36:53.364Z,19.82
2023-05-14T16:37:03.212Z,19.80
2023-05-14T16:37:13.466Z,19.80
2023-05-14T16:37:23.428Z,19.80
2023-05-14T16:37:34.305Z,19.80
2023-05-14T16:37:43.700Z,19.80
2023-05-14T16:37:53.846Z,19.80
2023-05-14T16:38:04.005Z,19.79
2023-05-14T16:38:13.992Z,19.80
2023-05-14T16:38:24.176Z,19.78
2023-05-14T16:39:05.719Z,19.76
2023-05-14T16:39:12.721Z,19.72
2023-05-14T16:39:19.243Z,19.71
2023-05-14T16:39:28.965Z,19.72
2023-05-14T16:39:39.069Z,19.75
2023-05-14T16:39:49.745Z,19.75
2023-05-14T16:39:59.302Z,19.71
2023-05-14T16:40:20.041Z,19.71
2023-05-14T16:40:29.663Z,19.71
2023-05-14T16:40:39.823Z,19.71
2023-05-14T16:40:50.051Z,19.70
2023-05-14T16:41:00.236Z,19.67
2023-05-14T16:41:10.334Z,19.67
2023-05-14T16:41:20.467Z,19.68
2023-05-14T16:41:30.663Z,19.65
2023-05-14T16:41:40.839Z,19.64
2023-05-14T16:41:50.885Z,19.64
2023-05-14T16:42:01.072Z,19.64
2023-05-14T16:42:11.742Z,19.62
2023-05-14T16:42:21.207Z,19.61
2023-05-14T16:42:31.261Z,19.60
2023-05-14T16:42:41.498Z,19.60
2023-05-14T16:42:51.657Z,19.60
2023-05-14T16:43:01.829Z,19.60
2023-05-14T16:43:12.757Z,19.60
2023-05-14T16:43:22.131Z,19.58
2023-05-14T16:43:32.338Z,19.58
2023-05-14T16:43:42.355Z,19.58
2023-05-14T16:43:52.461Z,19.58
2023-05-14T16:44:02.474Z,19.57
2023-05-14T16:44:22.818Z,19.58
2023-05-14T16:44:32.863Z,19.57
2023-05-14T16:44:43.860Z,19.57
2023-05-14T16:44:53.222Z,19.55
2023-05-14T16:45:04.184Z,19.57
2023-05-14T16:45:13.371Z,19.55
2023-05-14T16:45:23.845Z,19.58
2023-05-14T16:45:33.673Z,19.58
2023-05-14T16:45:43.772Z,19.60
2023-05-14T16:45:54.005Z,19.61
2023-05-14T16:46:14.228Z,19.64
2023-05-14T16:46:24.243Z,19.64
2023-05-14T16:46:34.426Z,19.64
2023-05-14T16:46:44.400Z,19.60
2023-05-14T16:46:54.555Z,19.61
2023-05-14T16:47:04.724Z,19.58
2023-05-14T16:47:14.820Z,19.58
2023-05-14T16:47:25.002Z,19.57
2023-05-14T16:47:35.201Z,19.55
2023-05-14T16:47:45.243Z,19.53
2023-05-14T16:47:55.429Z,19.52
2023-05-14T16:48:05.449Z,19.49
2023-05-14T16:48:15.843Z,19.46
2023-05-14T16:48:25.778Z,19.45
2023-05-14T16:48:35.727Z,19.43
2023-05-14T16:48:46.486Z,19.43
2023-05-14T16:48:56.011Z,19.45
2023-05-14T16:49:06.093Z,19.45
2023-05-14T16:49:16.095Z,19.45
2023-05-14T16:49:26.248Z,19.46
2023-05-14T16:49:36.413Z,19.49
2023-05-14T16:49:48.480Z,19.50
2023-05-14T16:49:57.613Z,19.49
2023-05-14T16:50:06.880Z,19.52
2023-05-14T16:50:18.051Z,19.52
2023-05-14T16:50:26.943Z,19.52
2023-05-14T16:50:37.217Z,19.52
2023-05-14T16:50:57.360Z,19.53
2023-05-14T16:51:07.539Z,19.52
2023-05-14T16:51:18.424Z,19.52
2023-05-14T16:51:27.992Z,19.52
2023-05-14T16:51:37.844Z,19.52
2023-05-14T16:51:47.944Z,19.53
2023-05-14T16:51:58.255Z,19.53
2023-05-14T16:52:08.285Z,19.53
2023-05-14T16:52:18.562Z,19.53
2023-05-14T16:52:28.636Z,19.52
2023-05-14T16:52:38.673Z,19.52
2023-05-14T16:52:48.807Z,19.50
2023-05-14T16:52:58.836Z,19.52
2023-05-14T16:53:09.125Z,19.52
2023-05-14T16:53:19.129Z,19.53
2023-05-14T16:53:29.583Z,19.53
2023-05-14T16:53:39.284Z,19.53
2023-05-14T16:53:51.513Z,19.55
2023-05-14T16:53:59.492Z,19.53
2023-05-14T16:54:09.695Z,19.57
2023-05-14T16:54:19.975Z,19.55
2023-05-14T16:54:29.903Z,19.57
2023-05-14T16:54:40.019Z,19.53
2023-05-14T16:54:50.873Z,19.57
2023-05-14T16:55:00.426Z,19.55
2023-05-14T16:55:10.468Z,19.55
2023-05-14T16:55:20.514Z,19.57
2023-05-14T16:55:30.762Z,19.55
2023-05-14T16:55:40.960Z,19.57
2023-05-14T16:56:01.062Z,19.52
2023-05-14T16:56:10.995Z,19.52
2023-05-14T16:56:21.258Z,19.50
2023-05-14T16:56:31.308Z,19.49
2023-05-14T16:56:41.407Z,19.49
2023-05-14T16:56:51.533Z,19.47
2023-05-14T16:57:01.680Z,19.46
2023-05-14T16:57:11.824Z,19.46
2023-05-14T16:57:21.949Z,19.46
2023-05-14T16:57:32.058Z,19.46
2023-05-14T16:57:42.118Z,19.43
2023-05-14T16:57:52.253Z,19.45
2023-05-14T16:58:02.406Z,19.43
2023-05-14T16:58:12.613Z,19.43
2023-05-14T16:58:22.686Z,19.45
2023-05-14T16:58:32.828Z,19.43
2023-05-14T16:58:42.912Z,19.45
2023-05-14T16:58:53.060Z,19.47
2023-05-14T16:59:03.162Z,19.50
2023-05-14T16:59:13.294Z,19.52
2023-05-14T16:59:23.452Z,19.52
2023-05-14T16:59:33.524Z,19.53
2023-05-14T16:59:43.866Z,19.55
2023-05-14T16:59:53.914Z,19.55
2023-05-14T17:00:04.168Z,19.55
2023-05-14T17:00:14.337Z,19.55
2023-05-14T17:00:24.415Z,19.57
2023-05-14T17:00:34.300Z,19.53
2023-05-14T17:00:44.517Z,19.50
2023-05-14T17:00:54.591Z,19.49
2023-05-14T17:01:05.527Z,19.49
2023-05-14T17:01:15.154Z,19.49
2023-05-14T17:01:25.606Z,19.46
2023-05-14T17:01:35.485Z,19.43
2023-05-14T17:01:45.241Z,19.42
2023-05-14T17:01:55.978Z,19.39
2023-05-14T17:02:05.890Z,19.38
2023-05-14T17:02:16.237Z,19.34
2023-05-14T17:02:26.096Z,19.30
2023-05-14T17:02:35.912Z,19.28
2023-05-14T17:02:46.054Z,19.28
2023-05-14T17:02:56.489Z,19.27
2023-05-14T17:03:06.330Z,19.25
2023-05-14T17:03:16.857Z,19.24
2023-05-14T17:03:26.539Z,19.24
2023-05-14T17:03:36.702Z,19.24
2023-05-14T17:03:46.815Z,19.24
2023-05-14T17:03:56.980Z,19.24
2023-05-14T17:04:07.692Z,19.23
2023-05-14T17:04:17.361Z,19.23
2023-05-14T17:04:27.421Z,19.24
2023-05-14T17:04:38.438Z,19.24
2023-05-14T17:04:47.845Z,19.25
2023-05-14T17:04:57.848Z,19.25
2023-05-14T17:05:07.919Z,19.27
2023-05-14T17:05:18.411Z,19.28
2023-05-14T17:05:28.077Z,19.28
2023-05-14T17:05:39.199Z,19.30
2023-05-14T17:05:48.819Z,19.30
2023-05-14T17:05:58.388Z,19.31
2023-05-14T17:06:08.542Z,19.32
2023-05-14T17:06:18.726Z,19.34
2023-05-14T17:06:29.109Z,19.35
2023-05-14T17:06:49.181Z,19.39
2023-05-14T17:06:59.192Z,19.40
2023-05-14T17:07:09.445Z,19.40
2023-05-14T17:07:19.756Z,19.42
2023-05-14T17:07:30.351Z,19.43
2023-05-14T17:07:39.968Z,19.43
2023-05-14T17:07:50.059Z,19.43
2023-05-14T17:08:01.631Z,19.43
2023-05-14T17:08:10.299Z,19.42
2023-05-14T17:08:20.753Z,19.42
2023-05-14T17:08:31.666Z,19.45
2023-05-14T17:08:40.629Z,19.45
2023-05-14T17:08:50.686Z,19.45
2023-05-14T17:09:11.015Z,19.49
2023-05-14T17:09:20.917Z,19.47
2023-05-14T17:09:31.220Z,19.49
2023-05-14T17:09:41.290Z,19.49
2023-05-14T17:09:51.344Z,19.49
2023-05-14T17:10:01.781Z,19.50
2023-05-14T17:10:11.553Z,19.53
2023-05-14T17:10:21.600Z,19.55
2023-05-14T17:10:32.093Z,19.57
2023-05-14T17:10:42.994Z,19.55
2023-05-14T17:10:52.070Z,19.57
2023-05-14T17:11:02.253Z,19.60
2023-05-14T17:11:13.302Z,19.60
2023-05-14T17:11:22.748Z,19.62
2023-05-14T17:11:32.521Z,19.61
2023-05-14T17:11:52.855Z,19.62
2023-05-14T17:12:02.817Z,19.65
2023-05-14T17:12:12.994Z,19.65
2023-05-14T17:12:22.986Z,19.64
2023-05-14T17:12:33.191Z,19.65
2023-05-14T17:12:43.428Z,19.65
2023-05-14T17:12:53.486Z,19.65
2023-05-14T17:13:04.252Z,19.67
2023-05-14T17:13:13.891Z,19.67
2023-05-14T17:13:23.953Z,19.68
2023-05-14T17:13:33.970Z,19.70
2023-05-14T17:13:44.121Z,19.71
2023-05-14T17:13:54.544Z,19.71
2023-05-14T17:14:04.542Z,19.72
2023-05-14T17:14:14.743Z,19.71
2023-05-14T17:14:24.954Z,19.71
2023-05-14T17:14:34.807Z,19.71
2023-05-14T17:14:45.075Z,19.71
2023-05-14T17:14:55.062Z,19.71
2023-05-14T17:15:06.532Z,19.71
2023-05-14T17:15:15.912Z,19.68
2023-05-14T17:15:26.112Z,19.70
2023-05-14T17:15:35.778Z,19.68
2023-05-14T17:15:45.950Z,19.68
2023-05-14T17:15:56.037Z,19.68
2023-05-14T17:16:15.988Z,19.68
2023-05-14T17:16:27.026Z,19.68
2023-05-14T17:16:36.335Z,19.68
2023-05-14T17:16:46.603Z,19.68
2023-05-14T17:16:57.618Z,19.68
2023-05-14T17:17:10.782Z,19.68
2023-05-14T17:17:16.898Z,19.65
2023-05-14T17:17:27.773Z,19.68
2023-05-14T17:17:39.016Z,19.70
2023-05-14T17:17:47.917Z,19.70
2023-05-14T17:17:57.439Z,19.70
2023-05-14T17:18:12.889Z,19.71
2023-05-14T17:18:22.849Z,19.67
2023-05-14T17:18:29.602Z,19.67
2023-05-14T17:18:40.425Z,19.68
2023-05-14T17:18:52.916Z,19.67
2023-05-14T17:19:00.436Z,19.65
2023-05-14T17:19:22.377Z,19.67
2023-05-14T17:19:34.214Z,19.65
2023-05-14T17:19:46.845Z,19.64
2023-05-14T17:19:57.907Z,19.62
2023-05-14T17:20:05.854Z,19.60
2023-05-14T17:20:16.109Z,19.60
2023-05-14T17:20:27.553Z,19.61
2023-05-14T17:20:34.588Z,19.60
2023-05-14T17:20:58.574Z,19.57
2023-05-14T17:21:04.681Z,19.55
2023-05-14T17:21:15.174Z,19.57
2023-05-14T17:21:33.620Z,19.57
2023-05-14T17:21:39.827Z,19.55
2023-05-14T17:21:50.822Z,19.58
2023-05-14T17:22:04.454Z,19.55
2023-05-14T17:22:10.893Z,19.52
2023-05-14T17:22:25.553Z,19.53
2023-05-14T17:22:35.450Z,19.50
2023-05-14T17:22:42.043Z,19.49
2023-05-14T17:22:56.730Z,19.50
2023-05-14T17:23:10.599Z,19.47
2023-05-14T17:23:16.621Z,19.46
2023-05-14T17:23:31.561Z,19.49
2023-05-14T17:23:37.709Z,19.46
2023-05-14T17:23:47.839Z,19.47
2023-05-14T17:24:02.359Z,19.49
2023-05-14T17:24:19.246Z,19.49
